Time;durP1;ratioP1;P1;durP2;ratioP2;P2;SDS_P1;SDS_P2;PMS_P1;PMS_P2;Temp;Humidity;BMP_temperature;BMP_pressure;BME280_temperature;BME280_humidity;BME280_pressure;Samples;Min_cycle;Max_cycle;Signal;HPM_P1;HPM_P2
2021/04/19 07:01:58;;;;;;;7.95;7.35;;;;;;;;;;13011016;22;733490;-82
2021/04/19 07:07:31;;;;;;;5.30;4.80;;;;;;;;;;12914902;23;20004;-86
2021/04/19 07:12:36;;;;;;;9.82;9.02;;;;;;;;;;12912914;23;20015;-87
2021/04/19 07:17:37;;;;;;;10.15;9.35;;;;;;;;;;12942188;23;20000;-86
2021/04/19 07:22:39;;;;;;;6.28;5.78;;;;;;;;;;12917846;23;20005;-86
2021/04/19 07:27:48;;;;;;;5.70;5.20;;;;;;;;;;12916684;23;20039;-85
2021/04/19 07:32:53;;;;;;;5.47;4.97;;;;;;;;;;12942511;23;20015;-86
2021/04/19 07:37:56;;;;;;;5.00;4.50;;;;;;;;;;12921843;23;20007;-85
2021/04/19 07:43:27;;;;;;;5.70;5.20;;;;;;;;;;12914099;23;20007;-85
2021/04/19 07:48:40;;;;;;;4.28;3.90;;;;;;;;;;12668541;23;20097;-87
2021/04/19 07:53:41;;;;;;;5.88;4.38;;;;;;;;;;12917815;23;20008;-85
2021/04/19 07:58:42;;;;;;;3.60;3.10;;;;;;;;;;12921903;23;20000;-88
2021/04/19 08:09:31;;;;;;;3.80;3.13;;;;;;;;;;12889130;23;20055;-87
2021/04/19 08:14:38;;;;;;;5.78;5.15;;;;;;;;;;12916646;23;20239;-87
2021/04/19 08:19:40;;;;;;;5.28;3.60;;;;;;;;;;12920115;23;20003;-85
2021/04/19 08:24:48;;;;;;;5.03;4.53;;;;;;;;;;12924970;23;20023;-85
2021/04/19 08:29:58;;;;;;;7.32;5.40;;;;;;;;;;12930588;23;20008;-85
2021/04/19 08:35:03;;;;;;;4.47;4.07;;;;;;;;;;12925255;23;20043;-85
2021/04/19 08:40:04;;;;;;;5.28;4.32;;;;;;;;;;12927740;23;20005;-87
2021/04/19 08:45:06;;;;;;;4.30;3.90;;;;;;;;;;12925235;23;20456;-86
2021/04/19 08:50:08;;;;;;;5.15;4.55;;;;;;;;;;12918220;23;20007;-84
2021/04/19 08:55:12;;;;;;;6.35;5.80;;;;;;;;;;12924001;23;20285;-86
2021/04/19 09:00:15;;;;;;;5.05;4.55;;;;;;;;;;12922347;23;20004;-85
2021/04/19 09:05:17;;;;;;;5.82;4.40;;;;;;;;;;12928949;23;20011;-85
2021/04/19 09:10:21;;;;;;;6.57;4.38;;;;;;;;;;12922384;23;20071;-86
2021/04/19 09:15:27;;;;;;;6.28;5.47;;;;;;;;;;12920097;23;20008;-86
2021/04/19 09:20:33;;;;;;;4.70;4.30;;;;;;;;;;12923527;23;20370;-86
2021/04/19 09:25:43;;;;;;;4.90;3.58;;;;;;;;;;12923491;23;20067;-85
2021/04/19 09:30:45;;;;;;;4.10;3.70;;;;;;;;;;12919479;23;20046;-85
2021/04/19 09:35:50;;;;;;;4.32;3.15;;;;;;;;;;12917427;23;20335;-85
2021/04/19 09:40:52;;;;;;;8.45;3.67;;;;;;;;;;12918245;23;20019;-87
2021/04/19 09:45:54;;;;;;;3.20;2.58;;;;;;;;;;12923280;23;20015;-86
2021/04/19 09:50:59;;;;;;;4.00;3.63;;;;;;;;;;12924863;23;20004;-86
2021/04/19 09:56:00;;;;;;;5.22;4.82;;;;;;;;;;12919535;23;20035;-85
2021/04/19 10:01:01;;;;;;;7.28;4.88;;;;;;;;;;12919184;23;20097;-85
2021/04/19 10:06:03;;;;;;;5.32;4.22;;;;;;;;;;12916965;23;20012;-85
2021/04/19 10:11:05;;;;;;;8.25;7.45;;;;;;;;;;12912297;23;20487;-83
2021/04/19 10:16:17;;;;;;;8.77;7.93;;;;;;;;;;12907434;23;20031;-85
2021/04/19 10:21:30;;;;;;;5.93;5.43;;;;;;;;;;12818564;23;20020;-85
2021/04/19 10:26:39;;;;;;;6.47;5.63;;;;;;;;;;12813697;23;20002;-81
2021/04/19 10:31:40;;;;;;;;;;;;;;;;;;12819617;23;20060;-82
2021/04/19 10:36:45;;;;;;;9.32;8.63;;;;;;;;;;12822244;23;19904;-83
2021/04/19 10:41:48;;;;;;;4.57;4.18;;;;;;;;;;12819232;23;20005;-83
2021/04/19 10:46:49;;;;;;;7.00;6.40;;;;;;;;;;12828883;23;20008;-85
2021/04/19 10:51:51;;;;;;;8.88;8.07;;;;;;;;;;12830896;23;20333;-83
2021/04/19 10:56:52;;;;;;;5.18;4.68;;;;;;;;;;12827518;23;20008;-84
2021/04/19 11:02:07;;;;;;;6.72;6.13;;;;;;;;;;12821239;23;20021;-85
2021/04/19 11:07:23;;;;;;;7.22;6.53;;;;;;;;;;12819181;23;20095;-85
2021/04/19 11:12:24;;;;;;;5.82;5.22;;;;;;;;;;12817967;23;20011;-84
2021/04/19 11:17:30;;;;;;;6.72;5.28;;;;;;;;;;12818294;23;20047;-86
2021/04/19 11:22:37;;;;;;;4.60;4.18;;;;;;;;;;12814466;23;20009;-86
2021/04/19 11:27:38;;;;;;;5.35;4.10;;;;;;;;;;12817865;23;20005;-87
2021/04/19 11:32:39;;;;;;;5.68;4.78;;;;;;;;;;12825769;23;20040;-86
2021/04/19 11:37:46;;;;;;;4.78;4.20;;;;;;;;;;12800896;23;20382;-85
2021/04/19 11:42:53;;;;;;;5.13;4.63;;;;;;;;;;12819527;23;20012;-84
2021/04/19 11:47:54;;;;;;;5.93;5.38;;;;;;;;;;12819849;23;20060;-85
2021/04/19 11:52:55;;;;;;;6.60;5.97;;;;;;;;;;12821763;23;20085;-85
2021/04/19 11:57:56;;;;;;;7.15;6.43;;;;;;;;;;12836629;23;20001;-85
2021/04/19 12:02:57;;;;;;;6.65;4.95;;;;;;;;;;12840507;23;20001;-85
2021/04/19 12:07:58;;;;;;;7.40;6.72;;;;;;;;;;12820901;23;20009;-85
2021/04/19 12:12:59;;;;;;;7.35;6.57;;;;;;;;;;12820321;23;20004;-86
2021/04/19 12:18:00;;;;;;;5.20;4.70;;;;;;;;;;12817729;23;20325;-86
2021/04/19 12:23:01;;;;;;;7.35;6.75;;;;;;;;;;12816354;23;20001;-85
2021/04/19 12:28:02;;;;;;;10.52;9.63;;;;;;;;;;12820298;23;20104;-85
2021/04/19 12:33:03;;;;;;;6.05;5.45;;;;;;;;;;12818044;23;20088;-83
2021/04/19 12:38:04;;;;;;;7.68;6.85;;;;;;;;;;12819485;23;20008;-84
2021/04/19 12:43:05;;;;;;;9.75;8.90;;;;;;;;;;12829838;23;20012;-85
2021/04/19 12:48:07;;;;;;;7.90;7.15;;;;;;;;;;12833239;23;20422;-82
2021/04/19 12:53:09;;;;;;;8.15;7.45;;;;;;;;;;12830210;23;20020;-82
2021/04/19 12:58:16;;;;;;;9.15;8.38;;;;;;;;;;12829205;23;19997;-80
2021/04/19 13:03:17;;;;;;;9.20;8.32;;;;;;;;;;12835826;23;20012;-84
2021/04/19 13:08:18;;;;;;;7.75;7.05;;;;;;;;;;12838170;23;20039;-84
2021/04/19 13:13:19;;;;;;;7.22;6.63;;;;;;;;;;12833052;23;20005;-84
2021/04/19 13:18:20;;;;;;;5.25;4.75;;;;;;;;;;12835077;23;20036;-83
2021/04/19 13:23:21;;;;;;;7.50;6.50;;;;;;;;;;12833373;23;20011;-84
2021/04/19 13:28:22;;;;;;;4.70;3.78;;;;;;;;;;12838634;23;20012;-83
2021/04/19 13:33:23;;;;;;;4.65;4.25;;;;;;;;;;12834655;23;20073;-83
2021/04/19 13:38:24;;;;;;;7.57;6.68;;;;;;;;;;12834345;23;20081;-83
2021/04/19 13:43:25;;;;;;;5.78;5.22;;;;;;;;;;12835615;23;20008;-83
2021/04/19 13:48:26;;;;;;;5.20;4.70;;;;;;;;;;12841139;23;20096;-82
2021/04/19 13:53:27;;;;;;;5.93;5.32;;;;;;;;;;12846510;23;20013;-82
2021/04/19 13:58:28;;;;;;;5.93;5.05;;;;;;;;;;12845068;23;20061;-83
2021/04/19 14:03:30;;;;;;;10.27;7.63;;;;;;;;;;12825444;23;20377;-84
2021/04/19 14:08:31;;;;;;;7.60;6.90;;;;;;;;;;12823274;23;20005;-83
2021/04/19 14:13:32;;;;;;;7.75;7.05;;;;;;;;;;12838082;23;20036;-84
2021/04/19 14:18:39;;;;;;;6.30;5.70;;;;;;;;;;12845522;23;20012;-83
2021/04/19 14:23:40;;;;;;;8.32;7.50;;;;;;;;;;12846580;23;20031;-82
2021/04/19 14:28:41;;;;;;;6.90;5.50;;;;;;;;;;12846602;23;20011;-84
2021/04/19 14:33:42;;;;;;;5.03;4.32;;;;;;;;;;12841434;23;20020;-81
2021/04/19 14:38:43;;;;;;;7.07;5.85;;;;;;;;;;12841094;23;20001;-84
2021/04/19 14:43:44;;;;;;;6.72;5.32;;;;;;;;;;12841772;23;20037;-85
2021/04/19 14:48:45;;;;;;;8.18;6.80;;;;;;;;;;12843130;23;20064;-85
2021/04/19 14:53:46;;;;;;;4.82;4.32;;;;;;;;;;12842736;23;20011;-82
2021/04/19 14:58:47;;;;;;;5.75;5.25;;;;;;;;;;12838456;23;20008;-84
2021/04/19 15:03:48;;;;;;;10.27;6.65;;;;;;;;;;12843230;23;20021;-84
2021/04/19 15:08:49;;;;;;;6.43;5.82;;;;;;;;;;12844948;23;19985;-82
2021/04/19 15:13:50;;;;;;;5.50;5.00;;;;;;;;;;12837647;23;20005;-83
2021/04/19 15:18:51;;;;;;;6.55;5.95;;;;;;;;;;12837464;23;20107;-84
2021/04/19 15:23:53;;;;;;;6.90;6.28;;;;;;;;;;12835467;23;20016;-84
2021/04/19 15:28:55;;;;;;;5.32;4.82;;;;;;;;;;12833218;23;20016;-84
2021/04/19 15:33:55;;;;;;;5.15;4.65;;;;;;;;;;12832004;23;20433;-84
2021/04/19 15:38:56;;;;;;;7.47;6.80;;;;;;;;;;12826370;23;20001;-86
2021/04/19 15:43:57;;;;;;;5.45;4.63;;;;;;;;;;12826631;23;20005;-86
2021/04/19 15:48:58;;;;;;;8.50;7.65;;;;;;;;;;12830482;23;20036;-83
2021/04/19 15:54:00;;;;;;;9.82;8.82;;;;;;;;;;12835856;23;20012;-84
2021/04/19 15:59:03;;;;;;;9.50;8.63;;;;;;;;;;12834942;23;20001;-84
2021/04/19 16:04:04;;;;;;;7.97;7.28;;;;;;;;;;12837110;23;20051;-83
2021/04/19 16:09:06;;;;;;;6.53;5.93;;;;;;;;;;12839518;23;20009;-82
2021/04/19 16:14:07;;;;;;;6.85;6.22;;;;;;;;;;12839236;23;20005;-83
2021/04/19 16:19:08;;;;;;;9.35;8.48;;;;;;;;;;12829366;23;20016;-81
2021/04/19 16:24:24;;;;;;;5.60;5.07;;;;;;;;;;12812196;23;20040;-81
2021/04/19 16:29:51;;;;;;;;;;;;;;;;;;;;;
2021/04/19 16:35:08;;;;;;;7.88;7.18;;;;;;;;;;12872840;23;20019;-87
2021/04/19 16:40:16;;;;;;;8.15;7.45;;;;;;;;;;12915955;23;20076;-86
2021/04/19 16:51:32;;;;;;;6.43;5.82;;;;;;;;;;12705962;23;20022;-87
2021/04/19 17:19:29;;;;;;;6.25;5.65;;;;;;;;;;12884910;23;20017;-84
2021/04/19 17:24:57;;;;;;;7.40;6.45;;;;;;;;;;12613288;23;20121;-84
2021/04/19 17:47:56;;;;;;;7.13;6.53;;;;;;;;;;12345218;24;20016;-84
2021/04/19 18:04:48;;;;;;;4.95;3.85;;;;;;;;;;12577514;23;20367;-84
